PWSweather.com
Personal Weather Stations
Station Observations
CANDIOTINO
Barrio Candioti Norte, Santa FeAR 3000

Barrio Candioti NorteSanta FeAR 3000

Lat: -31.632778, Lon: -60.695556

Elevation: 69

Station Type: WH-1081

http://www.eltiempoensantafe.com.ar

High Low Average
Temperature 65.1°F18.4°C 43.2°F6.2°C 53.2°F11.8°C
Dew Point 41.7°F5.4°C 22.9°F-5.1°C 34.2°F1.2°C
Winds 7.6 mph 12.2 kmh Calm Calm 3.0 mph S4.8 kmh S
Wind Gusts 14.5 mph23.3 kmh 0.7 mph1.1 kmh 8.0 mph12.9 kmh
Humidity 83% 22% 52%
Pressure 30.27 in1025.1 mb 30.10 in1019.3 mb -
Precipitation 0.00 in0.0 mm - -
Hour Temp Dew Point Humidity Winds Wind Gusts Pressure Precip Precip Rate Daily Precip Total
12:00 AM 51.6°F10.9°C 33.1°F0.6°C 49% 3.8 mph SSW6.1 kmh SSW 7.6 mph12.2 kmh 30.10 in1019.3 mb 0.00 in0.0 mm 0.00 in0.0 mm 0.00 in0.0 mm
12:15 AM 51.3°F10.7°C 34.2°F1.2°C 52% 1.6 mph SW2.6 kmh SW 9.2 mph14.8 kmh 30.10 in1019.3 mb 0.00 in0.0 mm 0.00 in0.0 mm 0.00 in0.0 mm
12:30 AM 50.9°F10.5°C 34.4°F1.3°C 53% 3.1 mph SW5.0 kmh SW 8.3 mph13.4 kmh 30.10 in1019.3 mb 0.00 in0.0 mm 0.00 in0.0 mm 0.00 in0.0 mm
12:45 AM 50.4°F10.2°C 33.9°F1.1°C 53% 3.8 mph SW6.1 kmh SW 13.6 mph21.9 kmh 30.10 in1019.3 mb 0.00 in0.0 mm 0.00 in0.0 mm 0.00 in0.0 mm
01:00 AM 50.0°F10.0°C 34.5°F1.4°C 55% 4.5 mph SW7.2 kmh SW 10.7 mph17.2 kmh 30.11 in1019.6 mb 0.00 in0.0 mm 0.00 in0.0 mm 0.00 in0.0 mm
01:15 AM 49.6°F9.8°C 35.0°F1.7°C 57% 2.2 mph SW3.5 kmh SW 7.6 mph12.2 kmh 30.11 in1019.6 mb 0.00 in0.0 mm 0.00 in0.0 mm 0.00 in0.0 mm
01:30 AM 49.5°F9.7°C 35.3°F1.8°C 58% 3.1 mph SW5.0 kmh SW 7.6 mph12.2 kmh 30.12 in1020.0 mb 0.00 in0.0 mm 0.00 in0.0 mm 0.00 in0.0 mm
01:45 AM 48.6°F9.2°C 34.5°F1.4°C 58% 3.8 mph S6.1 kmh S 12.1 mph19.5 kmh 30.13 in1020.3 mb 0.00 in0.0 mm 0.00 in0.0 mm 0.00 in0.0 mm
02:00 AM 47.7°F8.7°C 34.5°F1.4°C 60% 2.2 mph SW3.5 kmh SW 10.7 mph17.2 kmh 30.13 in1020.3 mb 0.00 in0.0 mm 0.00 in0.0 mm 0.00 in0.0 mm
02:15 AM 47.5°F8.6°C 35.5°F1.9°C 63% 3.8 mph SW6.1 kmh SW 7.6 mph12.2 kmh 30.12 in1020.0 mb 0.00 in0.0 mm 0.00 in0.0 mm 0.00 in0.0 mm
02:30 AM 47.3°F8.5°C 36.1°F2.3°C 65% 3.1 mph SW5.0 kmh SW 8.3 mph13.4 kmh 30.13 in1020.3 mb 0.00 in0.0 mm 0.00 in0.0 mm 0.00 in0.0 mm
02:45 AM 47.3°F8.5°C 36.5°F2.5°C 66% 4.5 mph SW7.2 kmh SW 8.3 mph13.4 kmh 30.13 in1020.3 mb 0.00 in0.0 mm 0.00 in0.0 mm 0.00 in0.0 mm
03:00 AM 46.6°F8.1°C 35.8°F2.1°C 66% 3.1 mph WSW5.0 kmh WSW 6.9 mph11.1 kmh 30.13 in1020.3 mb 0.00 in0.0 mm 0.00 in0.0 mm 0.00 in0.0 mm
03:15 AM 45.5°F7.5°C 34.8°F1.6°C 66% 1.6 mph WSW2.6 kmh WSW 6.0 mph9.7 kmh 30.12 in1020.0 mb 0.00 in0.0 mm 0.00 in0.0 mm 0.00 in0.0 mm
03:30 AM 45.1°F7.3°C 34.8°F1.6°C 67% 1.6 mph WSW2.6 kmh WSW 9.2 mph14.8 kmh 30.12 in1020.0 mb 0.00 in0.0 mm 0.00 in0.0 mm 0.00 in0.0 mm
03:45 AM 45.1°F7.3°C 35.2°F1.8°C 68% 1.6 mph W2.6 kmh W 3.8 mph6.1 kmh 30.12 in1020.0 mb 0.00 in0.0 mm 0.00 in0.0 mm 0.00 in0.0 mm
04:00 AM 45.1°F7.3°C 35.9°F2.2°C 70% 3.1 mph SW5.0 kmh SW 6.9 mph11.1 kmh 30.13 in1020.3 mb 0.00 in0.0 mm 0.00 in0.0 mm 0.00 in0.0 mm
04:15 AM 45.1°F7.3°C 35.9°F2.2°C 70% 3.8 mph SW6.1 kmh SW 6.0 mph9.7 kmh 30.12 in1020.0 mb 0.00 in0.0 mm 0.00 in0.0 mm 0.00 in0.0 mm
04:30 AM 45.0°F7.2°C 36.1°F2.3°C 71% 3.1 mph S5.0 kmh S 6.9 mph11.1 kmh 30.13 in1020.3 mb 0.00 in0.0 mm 0.00 in0.0 mm 0.00 in0.0 mm
04:45 AM 44.6°F7.0°C 35.8°F2.1°C 71% 4.5 mph S7.2 kmh S 9.8 mph15.8 kmh 30.14 in1020.7 mb 0.00 in0.0 mm 0.00 in0.0 mm 0.00 in0.0 mm
05:00 AM 44.4°F6.9°C 36.3°F2.4°C 73% 6.0 mph SSW9.7 kmh SSW 9.2 mph14.8 kmh 30.13 in1020.3 mb 0.00 in0.0 mm 0.00 in0.0 mm 0.00 in0.0 mm
05:15 AM 44.4°F6.9°C 36.7°F2.6°C 74% 3.8 mph SW6.1 kmh SW 10.7 mph17.2 kmh 30.14 in1020.7 mb 0.00 in0.0 mm 0.00 in0.0 mm 0.00 in0.0 mm
05:30 AM 44.2°F6.8°C 36.8°F2.7°C 75% 6.0 mph S9.7 kmh S 9.8 mph15.8 kmh 30.15 in1021.0 mb 0.00 in0.0 mm 0.00 in0.0 mm 0.00 in0.0 mm
05:45 AM 44.1°F6.7°C 37.0°F2.8°C 76% 3.1 mph S5.0 kmh S 11.4 mph18.3 kmh 30.14 in1020.7 mb 0.00 in0.0 mm 0.00 in0.0 mm 0.00 in0.0 mm
06:00 AM 43.9°F6.6°C 37.5°F3.1°C 78% 3.8 mph S6.1 kmh S 7.6 mph12.2 kmh 30.14 in1020.7 mb 0.00 in0.0 mm 0.00 in0.0 mm 0.00 in0.0 mm
06:15 AM 43.7°F6.5°C 37.6°F3.1°C 79% 3.8 mph SSW6.1 kmh SSW 8.3 mph13.4 kmh 30.14 in1020.7 mb 0.00 in0.0 mm 0.00 in0.0 mm 0.00 in0.0 mm
06:30 AM 43.7°F6.5°C 38.3°F3.5°C 81% 3.8 mph SW6.1 kmh SW 9.8 mph15.8 kmh 30.16 in1021.3 mb 0.00 in0.0 mm 0.00 in0.0 mm 0.00 in0.0 mm
06:45 AM 43.7°F6.5°C 38.6°F3.7°C 82% 3.1 mph SSE5.0 kmh SSE 6.0 mph9.7 kmh 30.16 in1021.3 mb 0.00 in0.0 mm 0.00 in0.0 mm 0.00 in0.0 mm
07:00 AM 43.9°F6.6°C 38.7°F3.7°C 82% 3.1 mph S5.0 kmh S 6.9 mph11.1 kmh 30.16 in1021.3 mb 0.00 in0.0 mm 0.00 in0.0 mm 0.00 in0.0 mm
07:15 AM 43.9°F6.6°C 39.1°F3.9°C 83% 2.2 mph S3.5 kmh S 8.3 mph13.4 kmh 30.17 in1021.7 mb 0.00 in0.0 mm 0.00 in0.0 mm 0.00 in0.0 mm
07:30 AM 43.5°F6.4°C 38.7°F3.7°C 83% 3.1 mph SW5.0 kmh SW 8.3 mph13.4 kmh 30.17 in1021.7 mb 0.00 in0.0 mm 0.00 in0.0 mm 0.00 in0.0 mm
07:45 AM 43.2°F6.2°C 38.4°F3.6°C 83% 5.4 mph S8.7 kmh S 10.7 mph17.2 kmh 30.18 in1022.0 mb 0.00 in0.0 mm 0.00 in0.0 mm 0.00 in0.0 mm
08:00 AM 44.2°F6.8°C 39.1°F3.9°C 82% 5.4 mph S8.7 kmh S 9.2 mph14.8 kmh 30.18 in1022.0 mb 0.00 in0.0 mm 0.00 in0.0 mm 0.00 in0.0 mm
08:15 AM 45.3°F7.4°C 39.5°F4.2°C 80% 3.8 mph SSW6.1 kmh SSW 6.9 mph11.1 kmh 30.20 in1022.7 mb 0.00 in0.0 mm 0.00 in0.0 mm 0.00 in0.0 mm
08:30 AM 46.0°F7.8°C 39.6°F4.2°C 78% 3.8 mph S6.1 kmh S 7.6 mph12.2 kmh 30.20 in1022.7 mb 0.00 in0.0 mm 0.00 in0.0 mm 0.00 in0.0 mm
08:45 AM 46.9°F8.3°C 40.1°F4.5°C 77% 3.8 mph S6.1 kmh S 9.2 mph14.8 kmh 30.21 in1023.0 mb 0.00 in0.0 mm 0.00 in0.0 mm 0.00 in0.0 mm
09:00 AM 48.2°F9.0°C 40.7°F4.8°C 75% 5.4 mph S8.7 kmh S 7.6 mph12.2 kmh 30.22 in1023.4 mb 0.00 in0.0 mm 0.00 in0.0 mm 0.00 in0.0 mm
09:15 AM 48.4°F9.1°C 40.8°F4.9°C 75% 6.0 mph S9.7 kmh S 10.7 mph17.2 kmh 30.22 in1023.4 mb 0.00 in0.0 mm 0.00 in0.0 mm 0.00 in0.0 mm
09:30 AM 50.0°F10.0°C 41.7°F5.4°C 73% 5.4 mph S8.7 kmh S 9.8 mph15.8 kmh 30.24 in1024.0 mb 0.00 in0.0 mm 0.00 in0.0 mm 0.00 in0.0 mm
09:45 AM 50.9°F10.5°C 41.1°F5.1°C 69% 4.5 mph S7.2 kmh S 10.7 mph17.2 kmh 30.24 in1024.0 mb 0.00 in0.0 mm 0.00 in0.0 mm 0.00 in0.0 mm
10:00 AM 51.4°F10.8°C 41.2°F5.1°C 68% 4.5 mph S7.2 kmh S 9.2 mph14.8 kmh 30.24 in1024.0 mb 0.00 in0.0 mm 0.00 in0.0 mm 0.00 in0.0 mm
10:15 AM 53.1°F11.7°C 41.2°F5.1°C 64% 3.8 mph S6.1 kmh S 10.7 mph17.2 kmh 30.25 in1024.4 mb 0.00 in0.0 mm 0.00 in0.0 mm 0.00 in0.0 mm
10:30 AM 54.1°F12.3°C 41.4°F5.2°C 62% 3.8 mph S6.1 kmh S 7.6 mph12.2 kmh 30.25 in1024.4 mb 0.00 in0.0 mm 0.00 in0.0 mm 0.00 in0.0 mm
10:45 AM 55.0°F12.8°C 38.7°F3.7°C 54% 5.4 mph S8.7 kmh S 9.2 mph14.8 kmh 30.26 in1024.7 mb 0.00 in0.0 mm 0.00 in0.0 mm 0.00 in0.0 mm
11:00 AM 56.3°F13.5°C 39.4°F4.1°C 53% 4.5 mph SSE7.2 kmh SSE 9.2 mph14.8 kmh 30.26 in1024.7 mb 0.00 in0.0 mm 0.00 in0.0 mm 0.00 in0.0 mm
11:15 AM 56.3°F13.5°C 38.4°F3.6°C 51% 4.5 mph S7.2 kmh S 9.8 mph15.8 kmh 30.26 in1024.7 mb 0.00 in0.0 mm 0.00 in0.0 mm 0.00 in0.0 mm
11:30 AM 57.2°F14.0°C 35.5°F1.9°C 44% 5.4 mph S8.7 kmh S 10.7 mph17.2 kmh 30.26 in1024.7 mb 0.00 in0.0 mm 0.00 in0.0 mm 0.00 in0.0 mm
11:45 AM 58.5°F14.7°C 33.6°F0.9°C 39% 5.4 mph S8.7 kmh S 9.8 mph15.8 kmh 30.26 in1024.7 mb 0.00 in0.0 mm 0.00 in0.0 mm 0.00 in0.0 mm
12:00 PM 58.6°F14.8°C 32.5°F0.3°C 37% 3.8 mph S6.1 kmh S 9.8 mph15.8 kmh 30.26 in1024.7 mb 0.00 in0.0 mm 0.00 in0.0 mm 0.00 in0.0 mm
12:15 PM 59.4°F15.2°C 30.3°F-0.9°C 33% 5.4 mph SSW8.7 kmh SSW 10.7 mph17.2 kmh 30.26 in1024.7 mb 0.00 in0.0 mm 0.00 in0.0 mm 0.00 in0.0 mm
12:30 PM 60.1°F15.6°C 28.6°F-1.9°C 30% 3.1 mph S5.0 kmh S 11.4 mph18.3 kmh 30.26 in1024.7 mb 0.00 in0.0 mm 0.00 in0.0 mm 0.00 in0.0 mm
12:45 PM 60.1°F15.6°C 27.7°F-2.4°C 29% 7.6 mph S12.2 kmh S 11.4 mph18.3 kmh 30.27 in1025.1 mb 0.00 in0.0 mm 0.00 in0.0 mm 0.00 in0.0 mm
01:00 PM 60.4°F15.8°C 31.2°F-0.4°C 33% 6.0 mph SE9.7 kmh SE 11.4 mph18.3 kmh 30.26 in1024.7 mb 0.00 in0.0 mm 0.00 in0.0 mm 0.00 in0.0 mm
01:15 PM 61.2°F16.2°C 29.5°F-1.4°C 30% 5.4 mph SE8.7 kmh SE 10.7 mph17.2 kmh 30.26 in1024.7 mb 0.00 in0.0 mm 0.00 in0.0 mm 0.00 in0.0 mm
01:30 PM 62.4°F16.9°C 30.6°F-0.8°C 30% 5.4 mph S8.7 kmh S 12.1 mph19.5 kmh 30.25 in1024.4 mb 0.00 in0.0 mm 0.00 in0.0 mm 0.00 in0.0 mm
01:45 PM 62.4°F16.9°C 27.1°F-2.7°C 26% 4.5 mph SW7.2 kmh SW 11.4 mph18.3 kmh 30.25 in1024.4 mb 0.00 in0.0 mm 0.00 in0.0 mm 0.00 in0.0 mm
02:00 PM 61.7°F16.5°C 25.5°F-3.6°C 25% 7.6 mph S12.2 kmh S 12.1 mph19.5 kmh 30.24 in1024.0 mb 0.00 in0.0 mm 0.00 in0.0 mm 0.00 in0.0 mm
02:15 PM 61.9°F16.6°C 24.7°F-4.1°C 24% 3.8 mph SSW6.1 kmh SSW 11.4 mph18.3 kmh 30.23 in1023.7 mb 0.00 in0.0 mm 0.00 in0.0 mm 0.00 in0.0 mm
02:30 PM 61.7°F16.5°C 23.5°F-4.7°C 23% 3.8 mph S6.1 kmh S 11.4 mph18.3 kmh 30.23 in1023.7 mb 0.00 in0.0 mm 0.00 in0.0 mm 0.00 in0.0 mm
02:45 PM 62.2°F16.8°C 22.9°F-5.1°C 22% 4.5 mph S7.2 kmh S 10.7 mph17.2 kmh 30.22 in1023.4 mb 0.00 in0.0 mm 0.00 in0.0 mm 0.00 in0.0 mm
03:00 PM 62.1°F16.7°C 23.9°F-4.5°C 23% 6.0 mph S9.7 kmh S 12.1 mph19.5 kmh 30.22 in1023.4 mb 0.00 in0.0 mm 0.00 in0.0 mm 0.00 in0.0 mm
03:15 PM 61.9°F16.6°C 25.7°F-3.5°C 25% 3.1 mph S5.0 kmh S 13.6 mph21.9 kmh 30.22 in1023.4 mb 0.00 in0.0 mm 0.00 in0.0 mm 0.00 in0.0 mm
03:30 PM 62.4°F16.9°C 27.1°F-2.7°C 26% 5.4 mph SSE8.7 kmh SSE 14.5 mph23.3 kmh 30.22 in1023.4 mb 0.00 in0.0 mm 0.00 in0.0 mm 0.00 in0.0 mm
03:45 PM 62.6°F17.0°C 26.3°F-3.2°C 25% 1.6 mph S2.6 kmh S 13.0 mph20.9 kmh 30.21 in1023.0 mb 0.00 in0.0 mm 0.00 in0.0 mm 0.00 in0.0 mm
04:00 PM 63.0°F17.2°C 26.6°F-3.0°C 25% 5.4 mph SE8.7 kmh SE 9.8 mph15.8 kmh 30.21 in1023.0 mb 0.00 in0.0 mm 0.00 in0.0 mm 0.00 in0.0 mm
04:15 PM 64.2°F17.9°C 29.6°F-1.3°C 27% 2.2 mph S3.5 kmh S 9.2 mph14.8 kmh 30.21 in1023.0 mb 0.00 in0.0 mm 0.00 in0.0 mm 0.00 in0.0 mm
04:30 PM 63.5°F17.5°C 28.0°F-2.2°C 26% 4.5 mph S7.2 kmh S 9.2 mph14.8 kmh 30.21 in1023.0 mb 0.00 in0.0 mm 0.00 in0.0 mm 0.00 in0.0 mm
04:45 PM 64.6°F18.1°C 30.8°F-0.7°C 28% 3.1 mph SSE5.0 kmh SSE 6.9 mph11.1 kmh 30.21 in1023.0 mb 0.00 in0.0 mm 0.00 in0.0 mm 0.00 in0.0 mm
05:00 PM 64.4°F18.0°C 30.6°F-0.8°C 28% 2.2 mph SE3.5 kmh SE 8.3 mph13.4 kmh 30.22 in1023.4 mb 0.00 in0.0 mm 0.00 in0.0 mm 0.00 in0.0 mm
05:15 PM 65.1°F18.4°C 31.2°F-0.4°C 28% 5.4 mph SSE8.7 kmh SSE 6.9 mph11.1 kmh 30.22 in1023.4 mb 0.00 in0.0 mm 0.00 in0.0 mm 0.00 in0.0 mm
05:30 PM 63.9°F17.7°C 28.3°F-2.1°C 26% 5.4 mph SE8.7 kmh SE 9.8 mph15.8 kmh 30.21 in1023.0 mb 0.00 in0.0 mm 0.00 in0.0 mm 0.00 in0.0 mm
05:45 PM 63.1°F17.3°C 28.6°F-1.9°C 27% 4.5 mph SE7.2 kmh SE 9.2 mph14.8 kmh 30.21 in1023.0 mb 0.00 in0.0 mm 0.00 in0.0 mm 0.00 in0.0 mm
06:00 PM 62.6°F17.0°C 29.9°F-1.2°C 29% 1.6 mph SE2.6 kmh SE 9.8 mph15.8 kmh 30.22 in1023.4 mb 0.00 in0.0 mm 0.00 in0.0 mm 0.00 in0.0 mm
06:15 PM 63.0°F17.2°C 29.4°F-1.4°C 28% 2.2 mph SSE3.5 kmh SSE 5.4 mph8.7 kmh 30.22 in1023.4 mb 0.00 in0.0 mm 0.00 in0.0 mm 0.00 in0.0 mm
06:30 PM 61.7°F16.5°C 30.0°F-1.1°C 30% 1.6 mph E2.6 kmh E 4.5 mph7.2 kmh 30.21 in1023.0 mb 0.00 in0.0 mm 0.00 in0.0 mm 0.00 in0.0 mm
06:45 PM 58.6°F14.8°C 30.4°F-0.9°C 34% Calm Calm 2.2 mph3.5 kmh 30.22 in1023.4 mb 0.00 in0.0 mm 0.00 in0.0 mm 0.00 in0.0 mm
07:00 PM 57.2°F14.0°C 31.2°F-0.4°C 37% Calm Calm 1.6 mph2.6 kmh 30.21 in1023.0 mb 0.00 in0.0 mm 0.00 in0.0 mm 0.00 in0.0 mm
07:15 PM 56.1°F13.4°C 32.1°F0.1°C 40% Calm Calm 0.7 mph1.1 kmh 30.21 in1023.0 mb 0.00 in0.0 mm 0.00 in0.0 mm 0.00 in0.0 mm
07:30 PM 55.4°F13.0°C 34.4°F1.3°C 45% Calm Calm 1.6 mph2.6 kmh 30.21 in1023.0 mb 0.00 in0.0 mm 0.00 in0.0 mm 0.00 in0.0 mm
07:45 PM 55.0°F12.8°C 34.6°F1.4°C 46% Calm Calm 1.6 mph2.6 kmh 30.22 in1023.4 mb 0.00 in0.0 mm 0.00 in0.0 mm 0.00 in0.0 mm
08:00 PM 54.5°F12.5°C 34.7°F1.5°C 47% Calm Calm 1.6 mph2.6 kmh 30.22 in1023.4 mb 0.00 in0.0 mm 0.00 in0.0 mm 0.00 in0.0 mm
08:15 PM 54.7°F12.6°C 36.4°F2.4°C 50% Calm Calm 2.2 mph3.5 kmh 30.22 in1023.4 mb 0.00 in0.0 mm 0.00 in0.0 mm 0.00 in0.0 mm
08:30 PM 54.3°F12.4°C 36.6°F2.6°C 51% Calm Calm 1.6 mph2.6 kmh 30.22 in1023.4 mb 0.00 in0.0 mm 0.00 in0.0 mm 0.00 in0.0 mm
08:45 PM 54.1°F12.3°C 37.4°F3.0°C 53% Calm Calm 3.1 mph5.0 kmh 30.21 in1023.0 mb 0.00 in0.0 mm 0.00 in0.0 mm 0.00 in0.0 mm
09:00 PM 54.1°F12.3°C 37.9°F3.3°C 54% 0.7 mph N1.1 kmh N 4.5 mph7.2 kmh 30.21 in1023.0 mb 0.00 in0.0 mm 0.00 in0.0 mm 0.00 in0.0 mm
09:15 PM 53.8°F12.1°C 36.1°F2.3°C 51% 0.7 mph NNW1.1 kmh NNW 4.5 mph7.2 kmh 30.22 in1023.4 mb 0.00 in0.0 mm 0.00 in0.0 mm 0.00 in0.0 mm
09:30 PM 53.4°F11.9°C 34.2°F1.2°C 48% 1.6 mph N2.6 kmh N 4.5 mph7.2 kmh 30.22 in1023.4 mb 0.00 in0.0 mm 0.00 in0.0 mm 0.00 in0.0 mm
09:45 PM 53.1°F11.7°C 33.9°F1.1°C 48% 1.6 mph N2.6 kmh N 4.5 mph7.2 kmh 30.22 in1023.4 mb 0.00 in0.0 mm 0.00 in0.0 mm 0.00 in0.0 mm
10:00 PM 52.7°F11.5°C 35.6°F2.0°C 52% 2.2 mph N3.5 kmh N 4.5 mph7.2 kmh 30.23 in1023.7 mb 0.00 in0.0 mm 0.00 in0.0 mm 0.00 in0.0 mm
10:15 PM 52.5°F11.4°C 37.7°F3.2°C 57% 3.1 mph N5.0 kmh N 5.4 mph8.7 kmh 30.22 in1023.4 mb 0.00 in0.0 mm 0.00 in0.0 mm 0.00 in0.0 mm
10:30 PM 52.3°F11.3°C 36.2°F2.3°C 54% 3.1 mph N5.0 kmh N 5.4 mph8.7 kmh 30.22 in1023.4 mb 0.00 in0.0 mm 0.00 in0.0 mm 0.00 in0.0 mm
10:45 PM 52.2°F11.2°C 35.1°F1.7°C 52% 1.6 mph NNE2.6 kmh NNE 6.9 mph11.1 kmh 30.22 in1023.4 mb 0.00 in0.0 mm 0.00 in0.0 mm 0.00 in0.0 mm
11:00 PM 52.0°F11.1°C 33.4°F0.8°C 49% 0.7 mph NNE1.1 kmh NNE 5.4 mph8.7 kmh 30.22 in1023.4 mb 0.00 in0.0 mm 0.00 in0.0 mm 0.00 in0.0 mm
11:15 PM 51.3°F10.7°C 33.8°F1.0°C 51% 1.6 mph N2.6 kmh N 3.8 mph6.1 kmh 30.23 in1023.7 mb 0.00 in0.0 mm 0.00 in0.0 mm 0.00 in0.0 mm
11:30 PM 50.7°F10.4°C 35.6°F2.0°C 56% 1.6 mph NNE2.6 kmh NNE 3.8 mph6.1 kmh 30.23 in1023.7 mb 0.00 in0.0 mm 0.00 in0.0 mm 0.00 in0.0 mm
11:45 PM 50.4°F10.2°C 37.8°F3.2°C 62% 2.2 mph N3.5 kmh N 4.5 mph7.2 kmh 30.23 in1023.7 mb 0.00 in0.0 mm 0.00 in0.0 mm 0.00 in0.0 mm